Mae Rim, Thailand
Current Conditions -  °F | °C
As of 8:00 PM on Saturday 01 Nov 2014 (Local Time) from VTCC Reporting Station
Few Clouds Few Clouds  
Wind Chill: 82°   Ceiling: Unl
Heat Index: 86°   Visibility: 6mi
Dew Point: 70°   Wind: 3mph
Humidity: 66%   Direction: 10°N
Pressure: 29.88"   Gusts: NA
Location:  18.9°N, 98.9°E
Report Text: VTCC 011300Z 01003KT 9999 FEW035 28/21 Q1012 A2991 NOSIG
Loading
Personal Weather Stations






























Interactive Weather Map
Tropical Storm Tracking
New forecast layout! Learn more

10-Day Weather Forecast

Advertisements
Track Severe Weather on mobile